createdAt,value
2023-05-05T00:19:07.016Z,64
2023-05-05T00:48:09.653Z,62
2023-05-05T01:17:19.507Z,64
2023-05-05T01:46:32.556Z,63
2023-05-05T02:15:43.140Z,63
2023-05-05T02:44:55.311Z,69
2023-05-05T03:14:00.910Z,64
2023-05-05T03:43:19.433Z,64
2023-05-05T04:12:39.194Z,64
2023-05-05T04:41:55.694Z,68
2023-05-05T05:11:17.381Z,72
2023-05-05T05:40:40.356Z,71
2023-05-05T06:38:56.241Z,74
2023-05-05T07:08:20.405Z,73
2023-05-05T07:37:37.897Z,76
2023-05-05T08:06:49.242Z,79
2023-05-05T08:36:01.835Z,78
2023-05-05T09:05:19.791Z,80
2023-05-05T09:34:37.889Z,75
2023-05-05T10:03:50.140Z,69
2023-05-05T10:34:19.959Z,64
2023-05-05T11:02:58.372Z,64
2023-05-05T11:31:59.530Z,63
2023-05-05T12:01:20.769Z,62
2023-05-05T12:30:40.184Z,55
2023-05-05T12:59:39.932Z,55
2023-05-05T13:28:54.160Z,59
2023-05-05T13:58:08.177Z,61
2023-05-05T14:27:11.365Z,69
2023-05-05T14:56:16.562Z,68
2023-05-05T15:25:16.880Z,68
2023-05-05T15:54:24.898Z,68
2023-05-05T16:23:32.048Z,79
2023-05-05T16:52:39.953Z,76
2023-05-05T17:21:51.201Z,72
2023-05-05T17:50:55.553Z,71
2023-05-05T18:20:06.136Z,71
2023-05-05T18:49:09.455Z,71
2023-05-05T19:18:17.194Z,72
2023-05-05T19:47:20.145Z,73
2023-05-05T20:16:31.066Z,72
2023-05-05T20:45:36.143Z,73
2023-05-05T21:14:48.135Z,73
2023-05-05T21:43:51.521Z,74
2023-05-05T22:13:04.071Z,74
2023-05-05T22:42:04.710Z,74
2023-05-05T23:11:14.824Z,76
2023-05-05T23:40:21.551Z,74
